createdAt,value
2022-10-11T00:01:11.401Z,96272.63
2022-10-11T00:03:39.532Z,96295.09
2022-10-11T00:06:08.305Z,96294.59
2022-10-11T00:08:38.790Z,96284.16
2022-10-11T00:11:10.887Z,96293.94
2022-10-11T00:13:38.937Z,96305.84
2022-10-11T00:16:12.178Z,96314.63
2022-10-11T00:18:40.671Z,96325.66
2022-10-11T00:21:14.410Z,96333.72
2022-10-11T00:23:43.247Z,96325.56
2022-10-11T00:26:12.139Z,96321.94
2022-10-11T00:28:43.327Z,96313.84
2022-10-11T00:31:13.401Z,96302.31
2022-10-11T00:33:41.544Z,96304.75
2022-10-11T00:36:10.291Z,96307.09
2022-10-11T00:38:38.364Z,96307.69
2022-10-11T00:41:06.705Z,96298.47
2022-10-11T00:43:35.711Z,96292.56
2022-10-11T00:46:26.480Z,96297.38
2022-10-11T00:49:11.526Z,96294.53
2022-10-11T00:51:45.112Z,96289.81
2022-10-11T00:54:19.616Z,96292.50
2022-10-11T00:56:50.657Z,96306.69
2022-10-11T00:59:24.647Z,96318.16
2022-10-11T01:01:52.273Z,96322.19
2022-10-11T01:04:22.926Z,96329.19
2022-10-11T01:06:52.608Z,96326.69
2022-10-11T01:09:24.028Z,96326.09
2022-10-11T01:11:54.719Z,96320.13
2022-10-11T01:14:50.963Z,96325.59
2022-10-11T01:17:30.414Z,96335.53
2022-10-11T01:20:28.040Z,96331.59
2022-10-11T01:23:17.005Z,96331.06
2022-10-11T01:26:06.570Z,96333.56
2022-10-11T01:28:43.219Z,96345.19
2022-10-11T01:31:28.510Z,96357.81
2022-10-11T01:34:04.053Z,96355.69
2022-10-11T01:36:45.974Z,96361.91
2022-10-11T01:39:37.577Z,96368.69
2022-10-11T01:42:08.871Z,96372.25
2022-10-11T01:44:39.078Z,96376.00
2022-10-11T01:47:07.306Z,96372.03
2022-10-11T01:49:38.070Z,96369.44
2022-10-11T01:52:07.917Z,96374.19
2022-10-11T01:55:08.578Z,96371.31
2022-10-11T01:58:00.320Z,96388.41
2022-10-11T02:00:33.179Z,96382.69
2022-10-11T02:03:24.603Z,96379.09
2022-10-11T02:05:58.812Z,96393.81
2022-10-11T02:08:54.896Z,96399.13
2022-10-11T02:11:33.652Z,96411.00
2022-10-11T02:14:09.145Z,96416.00
2022-10-11T02:17:05.313Z,96418.25
2022-10-11T02:19:38.565Z,96423.63
2022-10-11T02:22:14.381Z,96425.53
2022-10-11T02:24:45.349Z,96429.16
2022-10-11T02:27:16.059Z,96431.94
2022-10-11T02:29:47.207Z,96433.47
2022-10-11T02:32:19.465Z,96442.56
2022-10-11T02:34:58.693Z,96445.22
2022-10-11T02:37:42.360Z,96450.63
2022-10-11T02:40:24.968Z,96463.75
2022-10-11T02:43:03.994Z,96479.31
2022-10-11T02:45:38.297Z,96484.06
2022-10-11T02:48:11.112Z,96487.50
2022-10-11T02:50:44.335Z,96490.56
2022-10-11T02:53:12.487Z,96490.38
2022-10-11T02:55:40.472Z,96502.97
2022-10-11T02:58:08.552Z,96506.00
2022-10-11T03:00:36.571Z,96505.22
2022-10-11T03:03:07.501Z,96526.91
2022-10-11T03:05:35.526Z,96540.50
2022-10-11T03:08:05.988Z,96541.53
2022-10-11T03:10:34.523Z,96546.03
2022-10-11T03:13:03.152Z,96532.31
2022-10-11T03:15:31.393Z,96544.34
2022-10-11T03:17:59.684Z,96542.56
2022-10-11T03:20:27.802Z,96557.47
2022-10-11T03:22:55.900Z,96562.28
2022-10-11T03:25:26.275Z,96559.97
2022-10-11T03:27:56.643Z,96562.13
2022-10-11T03:30:24.695Z,96564.16
2022-10-11T03:32:52.745Z,96566.00
2022-10-11T03:35:20.879Z,96573.16
2022-10-11T03:37:51.337Z,96601.66
2022-10-11T03:40:22.305Z,96618.06
2022-10-11T03:42:55.625Z,96611.63
2022-10-11T03:45:24.950Z,96632.88
2022-10-11T03:47:52.967Z,96641.63
2022-10-11T03:50:20.998Z,96642.81
2022-10-11T03:52:49.082Z,96663.16
2022-10-11T03:55:17.159Z,96663.09
2022-10-11T03:57:45.274Z,96673.09
2022-10-11T04:00:13.513Z,96680.91
2022-10-11T04:02:41.642Z,96672.97
2022-10-11T04:05:09.913Z,96673.66
2022-10-11T04:07:37.910Z,96687.38
2022-10-11T04:10:07.402Z,96683.66
2022-10-11T04:12:35.466Z,96703.97
2022-10-11T04:15:09.251Z,96715.16
2022-10-11T04:17:39.815Z,96725.41
2022-10-11T04:20:08.746Z,96721.06
2022-10-11T04:22:37.253Z,96728.41
2022-10-11T04:25:06.543Z,96740.84
2022-10-11T04:27:35.197Z,96761.47
2022-10-11T04:30:03.487Z,96764.34
2022-10-11T04:32:31.490Z,96763.38
2022-10-11T04:34:59.705Z,96764.28
2022-10-11T04:37:27.744Z,96783.19
2022-10-11T04:39:55.779Z,96792.56
2022-10-11T04:42:23.933Z,96790.50
2022-10-11T04:44:52.001Z,96784.47
2022-10-11T04:47:22.359Z,96784.84
2022-10-11T04:49:50.409Z,96789.94
2022-10-11T04:52:21.098Z,96800.44
2022-10-11T04:54:52.784Z,96803.63
2022-10-11T04:57:20.822Z,96805.72
2022-10-11T04:59:50.325Z,96826.53
2022-10-11T05:02:19.825Z,96821.50
2022-10-11T05:04:47.916Z,96841.84
2022-10-11T05:07:18.815Z,96843.06
2022-10-11T05:09:46.870Z,96856.31
2022-10-11T05:12:14.932Z,96872.63
2022-10-11T05:14:42.993Z,96884.41
2022-10-11T05:17:15.992Z,96887.38
2022-10-11T05:19:44.041Z,96879.81
2022-10-11T05:22:12.065Z,96889.09
2022-10-11T05:24:40.136Z,96891.34
2022-10-11T05:27:08.189Z,96900.56
2022-10-11T05:29:36.182Z,96907.72
2022-10-11T05:32:04.281Z,96916.16
2022-10-11T05:34:34.701Z,96926.03
2022-10-11T05:37:02.721Z,96921.28
2022-10-11T05:39:30.869Z,96929.31
2022-10-11T05:41:58.849Z,96936.13
2022-10-11T05:44:30.056Z,96939.78
2022-10-11T05:46:58.096Z,96949.09
2022-10-11T05:49:29.015Z,96952.75
2022-10-11T05:52:00.181Z,96956.56
2022-10-11T05:54:31.440Z,96952.81
2022-10-11T05:56:59.480Z,96950.66
2022-10-11T05:59:27.537Z,96963.22
2022-10-11T06:01:57.941Z,96963.72
2022-10-11T06:04:28.854Z,96976.97
2022-10-11T06:06:56.920Z,96974.22
2022-10-11T06:09:27.471Z,96978.22
2022-10-11T06:11:55.487Z,96977.72
2022-10-11T06:14:23.622Z,96985.06
2022-10-11T06:16:51.620Z,96997.44
2022-10-11T06:19:19.997Z,96991.75
2022-10-11T06:21:52.978Z,97009.81
2022-10-11T06:24:21.045Z,97005.28
2022-10-11T06:26:51.437Z,97016.44
2022-10-11T06:29:22.377Z,97026.88
2022-10-11T06:31:50.655Z,97018.53
2022-10-11T06:34:18.656Z,97026.25
2022-10-11T06:36:46.706Z,97033.22
2022-10-11T06:39:14.744Z,97040.53
2022-10-11T06:41:45.350Z,97063.44
2022-10-11T06:44:16.798Z,97057.91
2022-10-11T06:46:44.837Z,97062.34
2022-10-11T06:49:12.870Z,97056.78
2022-10-11T06:51:40.954Z,97061.09
2022-10-11T06:54:09.006Z,97060.19
2022-10-11T06:56:39.494Z,97072.97
2022-10-11T06:59:07.879Z,97072.97
2022-10-11T07:01:36.009Z,97078.28
2022-10-11T07:04:04.469Z,97081.28
2022-10-11T07:06:33.124Z,97094.34
2022-10-11T07:09:01.654Z,97078.13
2022-10-11T07:11:32.016Z,97081.56
2022-10-11T07:14:10.512Z,97076.72
2022-10-11T07:16:38.675Z,97075.19
2022-10-11T07:19:07.871Z,97085.94
2022-10-11T07:21:38.342Z,97096.03
2022-10-11T07:24:06.845Z,97092.34
2022-10-11T07:26:38.595Z,97106.91
2022-10-11T07:29:11.187Z,97108.19
2022-10-11T07:31:41.532Z,97108.31
2022-10-11T07:34:10.990Z,97106.94
2022-10-11T07:36:41.452Z,97112.44
2022-10-11T07:39:10.384Z,97105.59
2022-10-11T07:41:43.128Z,97106.84
2022-10-11T07:44:16.117Z,97118.75
2022-10-11T07:46:44.108Z,97127.91
2022-10-11T07:49:12.142Z,97139.75
2022-10-11T07:51:43.196Z,97131.16
2022-10-11T07:54:11.256Z,97136.81
2022-10-11T07:56:41.867Z,97125.44
2022-10-11T07:59:11.799Z,97127.09
2022-10-11T08:01:39.854Z,97121.50
2022-10-11T08:04:07.926Z,97131.75
2022-10-11T08:06:36.097Z,97126.53
2022-10-11T08:09:04.829Z,97128.47
2022-10-11T08:11:37.140Z,97133.63
2022-10-11T08:14:09.161Z,97130.06
2022-10-11T08:16:38.688Z,97142.53
2022-10-11T08:19:07.687Z,97141.31
2022-10-11T08:21:35.707Z,97141.59
2022-10-11T08:24:07.560Z,97151.22
2022-10-11T08:26:38.255Z,97153.16
2022-10-11T08:29:06.668Z,97160.34
2022-10-11T08:31:35.544Z,97174.59
2022-10-11T08:34:04.398Z,97182.69
2022-10-11T08:36:35.023Z,97203.38
2022-10-11T08:39:03.033Z,97208.06
2022-10-11T08:41:42.891Z,97213.06
2022-10-11T08:45:05.859Z,97219.59
2022-10-11T08:47:40.308Z,97235.53
2022-10-11T08:50:15.542Z,97256.41
2022-10-11T08:52:49.960Z,97270.94
2022-10-11T08:55:44.456Z,97270.78
2022-10-11T08:58:24.876Z,97270.75
2022-10-11T09:01:00.200Z,97302.59
2022-10-11T09:03:42.258Z,97300.22
2022-10-11T09:06:28.533Z,97304.00
2022-10-11T09:09:23.343Z,97307.06
2022-10-11T09:12:21.622Z,97305.22
2022-10-11T09:15:03.947Z,97312.31
2022-10-11T09:18:08.715Z,97308.16
2022-10-11T09:20:48.974Z,97319.97
2022-10-11T09:23:35.181Z,97311.72
2022-10-11T09:26:09.241Z,97316.00
2022-10-11T09:29:04.808Z,97325.81
2022-10-11T09:31:33.496Z,97329.22
2022-10-11T09:34:11.513Z,97318.91
2022-10-11T09:36:55.843Z,97337.69
2022-10-11T09:39:23.484Z,97328.03
2022-10-11T09:41:54.061Z,97327.84
2022-10-11T09:44:27.990Z,97323.81
2022-10-11T09:46:59.255Z,97331.28
2022-10-11T09:49:45.496Z,97341.53
2022-10-11T09:52:18.579Z,97343.38
2022-10-11T09:54:52.527Z,97365.13
2022-10-11T09:57:41.066Z,97388.44
2022-10-11T10:00:24.305Z,97389.41
2022-10-11T10:02:54.551Z,97389.59
2022-10-11T10:05:28.048Z,97394.25
2022-10-11T10:08:11.335Z,97381.97
2022-10-11T10:10:46.975Z,97405.31
2022-10-11T10:13:24.138Z,97412.34
2022-10-11T10:15:58.494Z,97429.91
2022-10-11T10:18:39.798Z,97417.41
2022-10-11T10:21:11.884Z,97417.69
2022-10-11T10:23:40.269Z,97419.47
2022-10-11T10:26:23.594Z,97434.13
2022-10-11T10:29:05.675Z,97434.13
2022-10-11T10:32:08.767Z,97425.84
2022-10-11T10:34:30.564Z,97431.94
2022-10-11T10:37:09.279Z,97439.13
2022-10-11T10:39:55.109Z,97449.09
2022-10-11T10:42:23.285Z,97443.34
2022-10-11T10:44:57.147Z,97440.63
2022-10-11T10:47:30.899Z,97432.03
2022-10-11T10:50:33.178Z,97429.66
2022-10-11T10:53:27.244Z,97443.00
2022-10-11T10:56:12.829Z,97445.13
2022-10-11T10:59:06.527Z,97448.69
2022-10-11T11:01:46.551Z,97442.16
2022-10-11T11:04:36.059Z,97446.09
2022-10-11T11:07:34.681Z,97439.84
2022-10-11T11:10:13.915Z,97450.59
2022-10-11T11:12:45.028Z,97453.59
2022-10-11T11:15:32.605Z,97459.69
2022-10-11T11:18:28.397Z,97457.72
2022-10-11T11:21:08.245Z,97455.63
2022-10-11T11:23:53.810Z,97459.03
2022-10-11T11:26:44.259Z,97475.44
2022-10-11T11:29:42.766Z,97475.47
2022-10-11T11:32:16.430Z,97473.91
2022-10-11T11:35:03.934Z,97492.63
2022-10-11T11:37:34.670Z,97488.44
2022-10-11T11:40:25.887Z,97490.31
2022-10-11T11:42:58.627Z,97492.63
2022-10-11T11:45:36.740Z,97492.22
2022-10-11T11:48:09.077Z,97485.00
2022-10-11T11:50:47.457Z,97484.94
2022-10-11T11:53:22.904Z,97494.34
2022-10-11T11:56:01.576Z,97494.44
2022-10-11T11:58:43.386Z,97497.22
2022-10-11T12:01:30.953Z,97497.53
2022-10-11T12:04:38.568Z,97497.53
2022-10-11T12:07:16.364Z,97487.19
2022-10-11T12:09:48.246Z,97499.44
2022-10-11T12:12:41.345Z,97510.00
2022-10-11T12:15:29.596Z,97525.72
2022-10-11T12:17:58.013Z,97521.97
2022-10-11T12:20:29.831Z,97526.59
2022-10-11T12:23:24.606Z,97534.88
2022-10-11T12:26:17.162Z,97536.13
2022-10-11T12:28:45.286Z,97538.72
2022-10-11T12:31:26.307Z,97547.13
2022-10-11T12:34:14.436Z,97547.25
2022-10-11T12:36:46.600Z,97540.66
2022-10-11T12:39:20.751Z,97547.94
2022-10-11T12:41:48.792Z,97548.69
2022-10-11T12:44:19.581Z,97562.66
2022-10-11T12:46:53.721Z,97558.81
2022-10-11T12:49:32.775Z,97556.81
2022-10-11T12:52:02.360Z,97555.75
2022-10-11T12:54:51.162Z,97559.69
2022-10-11T12:57:45.226Z,97569.88
2022-10-11T13:00:24.884Z,97574.63
2022-10-11T13:02:53.174Z,97573.53
2022-10-11T13:05:45.244Z,97573.56
2022-10-11T13:08:23.819Z,97572.44
2022-10-11T13:10:57.669Z,97575.88
2022-10-11T13:13:33.804Z,97572.06
2022-10-11T13:16:15.682Z,97579.25
2022-10-11T13:18:48.757Z,97575.84
2022-10-11T13:21:28.248Z,97592.25
2022-10-11T13:24:01.716Z,97593.34
2022-10-11T13:26:32.253Z,97589.13
2022-10-11T13:29:00.483Z,97602.13
2022-10-11T13:31:29.120Z,97605.66
2022-10-11T13:33:58.976Z,97611.78
2022-10-11T13:36:28.327Z,97609.13
2022-10-11T13:39:01.296Z,97615.59
2022-10-11T13:41:31.432Z,97625.97
2022-10-11T13:44:01.116Z,97626.66
2022-10-11T13:46:34.249Z,97635.06
2022-10-11T13:49:23.615Z,97626.66
2022-10-11T13:52:21.934Z,97631.59
2022-10-11T13:55:05.294Z,97640.06
2022-10-11T13:57:41.660Z,97638.13
2022-10-11T14:00:25.507Z,97630.09
2022-10-11T14:03:04.821Z,97640.78
2022-10-11T14:05:42.199Z,97638.81
2022-10-11T14:08:24.836Z,97634.09
2022-10-11T14:10:58.561Z,97636.81
2022-10-11T14:13:43.022Z,97643.44
2022-10-11T14:16:22.155Z,97657.22
2022-10-11T14:19:13.290Z,97652.66
2022-10-11T14:21:47.375Z,97657.50
2022-10-11T14:24:18.898Z,97667.09
2022-10-11T14:26:52.369Z,97665.25
2022-10-11T14:29:29.500Z,97671.44
2022-10-11T14:32:07.159Z,97676.41
2022-10-11T14:34:36.181Z,97697.03
2022-10-11T14:37:06.649Z,97702.34
2022-10-11T14:39:34.668Z,97707.34
2022-10-11T14:42:05.194Z,97703.16
2022-10-11T14:44:33.225Z,97716.94
2022-10-11T14:47:01.326Z,97708.91
2022-10-11T14:49:32.560Z,97725.69
2022-10-11T14:52:04.663Z,97714.00
2022-10-11T14:54:33.056Z,97704.13
2022-10-11T14:57:03.692Z,97722.13
2022-10-11T14:59:38.522Z,97728.22
2022-10-11T15:02:12.715Z,97722.16
2022-10-11T15:04:40.708Z,97714.16
2022-10-11T15:07:08.717Z,97711.06
2022-10-11T15:09:43.048Z,97730.16
2022-10-11T15:12:11.087Z,97717.97
2022-10-11T15:14:39.173Z,97723.34
2022-10-11T15:17:12.503Z,97726.28
2022-10-11T15:19:40.512Z,97735.69
2022-10-11T15:22:08.529Z,97749.75
2022-10-11T15:24:36.625Z,97745.88
2022-10-11T15:27:04.688Z,97749.63
2022-10-11T15:29:32.699Z,97748.63
2022-10-11T15:32:00.745Z,97752.81
2022-10-11T15:34:28.720Z,97752.19
2022-10-11T15:36:56.726Z,97757.69
2022-10-11T15:39:30.563Z,97748.91
2022-10-11T15:42:01.323Z,97744.75
2022-10-11T15:44:29.336Z,97758.06
2022-10-11T15:46:57.467Z,97744.41
2022-10-11T15:49:25.525Z,97754.41
2022-10-11T15:51:56.429Z,97764.06
2022-10-11T15:54:24.537Z,97750.69
2022-10-11T15:56:52.625Z,97741.22
2022-10-11T15:59:20.648Z,97748.91
2022-10-11T16:01:50.990Z,97762.84
2022-10-11T16:04:21.988Z,97770.22
2022-10-11T16:06:50.018Z,97782.66
2022-10-11T16:09:18.063Z,97805.97
2022-10-11T16:11:48.486Z,97800.59
2022-10-11T16:14:16.524Z,97815.13
2022-10-11T16:16:47.483Z,97821.81
2022-10-11T16:19:15.649Z,97824.19
2022-10-11T16:21:43.704Z,97831.59
2022-10-11T16:24:14.129Z,97830.19
2022-10-11T16:26:42.167Z,97833.72
2022-10-11T16:29:13.086Z,97833.69
2022-10-11T16:31:43.493Z,97834.38
2022-10-11T16:34:14.158Z,97836.97
2022-10-11T16:36:42.163Z,97825.00
2022-10-11T16:39:18.811Z,97819.59
2022-10-11T16:41:47.408Z,97810.72
2022-10-11T16:44:18.412Z,97809.97
2022-10-11T16:46:49.975Z,97808.09
2022-10-11T16:49:19.900Z,97799.34
2022-10-11T16:51:48.022Z,97812.06
2022-10-11T16:54:20.298Z,97813.19
2022-10-11T16:56:50.329Z,97825.50
2022-10-11T16:59:21.309Z,97811.06
2022-10-11T17:01:49.656Z,97817.69
2022-10-11T17:04:17.767Z,97825.59
2022-10-11T17:06:45.811Z,97827.47
2022-10-11T17:09:14.337Z,97833.09
2022-10-11T17:11:42.759Z,97836.25
2022-10-11T17:14:12.974Z,97834.00
2022-10-11T17:16:41.509Z,97836.25
2022-10-11T17:19:16.756Z,97830.66
2022-10-11T17:21:44.831Z,97847.34
2022-10-11T17:24:12.918Z,97849.66
2022-10-11T17:26:43.244Z,97840.34
2022-10-11T17:29:18.585Z,97837.81
2022-10-11T17:31:49.256Z,97830.66
2022-10-11T17:34:21.025Z,97830.50
2022-10-11T17:36:49.433Z,97827.88
2022-10-11T17:39:20.302Z,97827.34
2022-10-11T17:41:49.188Z,97829.84
2022-10-11T17:44:20.125Z,97835.59
2022-10-11T17:46:50.870Z,97833.94
2022-10-11T17:49:18.878Z,97831.25
2022-10-11T17:51:46.973Z,97832.66
2022-10-11T17:54:14.962Z,97835.41
2022-10-11T17:56:45.673Z,97834.75
2022-10-11T17:59:18.324Z,97830.06
2022-10-11T18:01:46.466Z,97829.69
2022-10-11T18:04:14.715Z,97826.84
2022-10-11T18:06:43.394Z,97827.19
2022-10-11T18:09:15.115Z,97827.56
2022-10-11T18:11:43.584Z,97829.91
2022-10-11T18:14:14.894Z,97816.41
2022-10-11T18:16:48.193Z,97827.88
2022-10-11T18:19:16.338Z,97819.41
2022-10-11T18:21:44.457Z,97820.59
2022-10-11T18:24:17.660Z,97832.75
2022-10-11T18:26:46.545Z,97831.50
2022-10-11T18:29:14.956Z,97821.16
2022-10-11T18:31:43.525Z,97818.41
2022-10-11T18:34:13.268Z,97815.00
2022-10-11T18:36:41.313Z,97815.88
2022-10-11T18:39:14.018Z,97813.75
2022-10-11T18:41:43.125Z,97810.75
2022-10-11T18:44:17.086Z,97810.91
2022-10-11T18:46:46.282Z,97806.63
2022-10-11T18:49:14.753Z,97811.66
2022-10-11T18:51:43.283Z,97814.28
2022-10-11T18:54:16.668Z,97808.91
2022-10-11T18:56:48.175Z,97803.88
2022-10-11T18:59:16.261Z,97817.94
2022-10-11T19:01:45.525Z,97816.88
2022-10-11T19:04:15.343Z,97811.22
2022-10-11T19:06:48.504Z,97811.00
2022-10-11T19:09:21.531Z,97810.94
2022-10-11T19:11:51.613Z,97803.19
2022-10-11T19:14:27.191Z,97803.56
2022-10-11T19:16:55.977Z,97807.31
2022-10-11T19:19:27.080Z,97806.78
2022-10-11T19:21:55.623Z,97792.75
2022-10-11T19:24:26.571Z,97801.59
2022-10-11T19:26:59.706Z,97797.47
2022-10-11T19:29:30.313Z,97793.75
2022-10-11T19:32:04.873Z,97785.84
2022-10-11T19:34:32.987Z,97794.56
2022-10-11T19:37:03.991Z,97793.94
2022-10-11T19:39:32.126Z,97784.50
2022-10-11T19:42:02.772Z,97778.38
2022-10-11T19:44:35.802Z,97770.47
2022-10-11T19:47:09.497Z,97771.63
2022-10-11T19:49:42.482Z,97769.69
2022-10-11T19:52:10.495Z,97765.25
2022-10-11T19:54:41.033Z,97776.06
2022-10-11T19:57:09.351Z,97766.34
2022-10-11T19:59:37.344Z,97763.47
2022-10-11T20:02:05.412Z,97766.78
2022-10-11T20:04:52.147Z,97762.63
2022-10-11T20:07:20.768Z,97759.91
2022-10-11T20:09:48.842Z,97766.66
2022-10-11T20:12:17.129Z,97754.81
2022-10-11T20:14:45.166Z,97756.56
2022-10-11T20:17:13.150Z,97752.88
2022-10-11T20:19:41.586Z,97747.41
2022-10-11T20:22:09.605Z,97753.03
2022-10-11T20:24:37.708Z,97750.78
2022-10-11T20:27:06.609Z,97740.69
2022-10-11T20:29:37.055Z,97726.91
2022-10-11T20:32:05.171Z,97723.72
2022-10-11T20:34:33.173Z,97718.09
2022-10-11T20:37:01.173Z,97707.38
2022-10-11T20:39:29.247Z,97708.94
2022-10-11T20:41:59.876Z,97709.56
2022-10-11T20:44:30.283Z,97711.66
2022-10-11T20:47:01.671Z,97705.72
2022-10-11T20:49:32.018Z,97704.19
2022-10-11T20:52:00.026Z,97702.66
2022-10-11T20:54:28.177Z,97696.53
2022-10-11T20:56:56.263Z,97700.50
2022-10-11T20:59:24.400Z,97696.50
2022-10-11T21:01:55.406Z,97694.56
2022-10-11T21:04:23.454Z,97688.97
2022-10-11T21:06:51.483Z,97691.44
2022-10-11T21:09:22.408Z,97689.19
2022-10-11T21:11:50.462Z,97690.88
2022-10-11T21:14:18.480Z,97699.88
2022-10-11T21:16:46.642Z,97699.81
2022-10-11T21:19:15.830Z,97689.75
2022-10-11T21:21:46.427Z,97701.31
2022-10-11T21:24:19.539Z,97694.09
2022-10-11T21:26:47.599Z,97690.03
2022-10-11T21:29:16.031Z,97686.16
2022-10-11T21:31:44.355Z,97679.59
2022-10-11T21:34:12.423Z,97673.34
2022-10-11T21:36:40.787Z,97665.22
2022-10-11T21:39:08.814Z,97671.00
2022-10-11T21:41:39.739Z,97670.91
2022-10-11T21:44:07.779Z,97657.59
2022-10-11T21:47:05.649Z,97665.66
2022-10-11T21:49:23.913Z,97647.22
2022-10-11T21:51:52.415Z,97620.31
2022-10-11T21:54:23.392Z,97628.47
2022-10-11T21:56:51.514Z,97647.53
2022-10-11T21:59:19.601Z,97638.47
2022-10-11T22:01:47.715Z,97638.13
2022-10-11T22:04:19.454Z,97652.09
2022-10-11T22:06:47.487Z,97641.69
2022-10-11T22:09:15.871Z,97653.19
2022-10-11T22:11:43.951Z,97663.66
2022-10-11T22:14:14.799Z,97666.88
2022-10-11T22:16:47.965Z,97682.53
2022-10-11T22:19:15.955Z,97664.50
2022-10-11T22:21:45.236Z,97656.25
2022-10-11T22:24:14.191Z,97651.72
2022-10-11T22:26:42.292Z,97651.38
2022-10-11T22:29:10.335Z,97649.28
2022-10-11T22:31:38.346Z,97649.75
2022-10-11T22:34:06.542Z,97646.75
2022-10-11T22:36:34.637Z,97635.13
2022-10-11T22:39:06.088Z,97640.22
2022-10-11T22:41:34.891Z,97632.38
2022-10-11T22:44:05.994Z,97643.72
2022-10-11T22:46:34.118Z,97635.72
2022-10-11T22:49:02.184Z,97638.28
2022-10-11T22:51:32.925Z,97637.47
2022-10-11T22:54:05.818Z,97630.75
2022-10-11T22:56:36.485Z,97630.00
2022-10-11T22:59:04.606Z,97634.06
2022-10-11T23:01:32.727Z,97634.34
2022-10-11T23:04:03.285Z,97632.69
2022-10-11T23:06:33.937Z,97632.13
2022-10-11T23:09:01.934Z,97629.38
2022-10-11T23:11:29.968Z,97627.44
2022-10-11T23:13:59.301Z,97639.03
2022-10-11T23:16:27.318Z,97634.66
2022-10-11T23:18:58.530Z,97630.16
2022-10-11T23:21:26.609Z,97646.56
2022-10-11T23:23:56.911Z,97653.72
2022-10-11T23:26:24.977Z,97659.22
2022-10-11T23:28:55.656Z,97664.78
2022-10-11T23:31:23.692Z,97658.09
2022-10-11T23:33:51.849Z,97663.13
2022-10-11T23:36:25.325Z,97659.97
2022-10-11T23:38:55.848Z,97658.34
2022-10-11T23:41:30.005Z,97658.28
2022-10-11T23:43:58.550Z,97661.06
2022-10-11T23:46:26.728Z,97661.84
2022-10-11T23:48:54.803Z,97656.75
2022-10-11T23:51:22.853Z,97658.47
2022-10-11T23:53:53.757Z,97665.22
2022-10-11T23:56:21.924Z,97662.50
2022-10-11T23:58:50.061Z,97672.91
